Time;durP1;ratioP1;P1;durP2;ratioP2;P2;SDS_P1;SDS_P2;PMS_P1;PMS_P2;Temp;Humidity;BMP_temperature;BMP_pressure;BME280_temperature;BME280_humidity;BME280_pressure;Samples;Min_cycle;Max_cycle;Signal;HPM_P1;HPM_P2
2021/07/31 00:02:38;;;;;;;18.33;8.77;;;;;;;21.63;59.26;98264.56;262286;1091;115272;-70
2021/07/31 00:07:42;;;;;;;17.03;8.00;;;;;;;21.59;59.33;98259.71;262040;1093;115032;-69
2021/07/31 00:12:46;;;;;;;15.53;8.80;;;;;;;21.55;59.52;98261.11;263445;1092;115087;-71
2021/07/31 00:17:50;;;;;;;11.05;7.98;;;;;;;21.52;59.42;98258.77;263785;1092;116536;-73
2021/07/31 00:22:53;;;;;;;18.78;7.60;;;;;;;21.47;59.72;98253.92;263221;1093;115124;-73
2021/07/31 00:28:01;;;;;;;13.37;7.73;;;;;;;21.41;59.28;98252.77;263245;1093;114953;-73
2021/07/31 00:33:06;;;;;;;13.30;8.13;;;;;;;21.33;60.07;98242.00;261483;1092;115369;-71
2021/07/31 00:38:12;;;;;;;14.23;8.00;;;;;;;21.23;59.74;98244.96;261209;1092;114926;-69
2021/07/31 00:43:16;;;;;;;14.93;8.40;;;;;;;21.14;59.92;98234.38;261351;1092;115136;-70
2021/07/31 00:48:22;;;;;;;10.57;7.90;;;;;;;21.10;60.30;98247.44;261999;1093;115265;-70
2021/07/31 00:53:27;;;;;;;13.60;8.13;;;;;;;21.10;60.39;98236.61;262898;1092;117091;-69
2021/07/31 00:58:32;;;;;;;12.77;8.93;;;;;;;21.11;60.44;98237.45;262138;1092;115359;-69
2021/07/31 01:03:40;;;;;;;15.83;9.00;;;;;;;21.07;60.54;98245.09;262661;1092;115048;-71
2021/07/31 01:08:44;;;;;;;17.20;8.68;;;;;;;21.01;60.65;98235.83;262182;1093;115356;-70
2021/07/31 01:13:53;;;;;;;14.73;9.47;;;;;;;20.96;60.51;98238.25;262503;1092;114963;-73
2021/07/31 01:18:59;;;;;;;13.30;8.37;;;;;;;20.90;60.65;98235.42;262796;1092;115154;-71
2021/07/31 01:24:04;;;;;;;;;;;;;;;20.82;60.83;98230.05;262440;1092;114727;-71
2021/07/31 01:29:11;;;;;;;14.30;8.87;;;;;;;20.74;60.99;98233.67;262100;1093;103039;-71
2021/07/31 01:34:16;;;;;;;16.50;9.23;;;;;;;20.76;61.12;98228.94;262551;1093;115448;-72
2021/07/31 01:39:21;;;;;;;11.43;8.27;;;;;;;20.79;61.39;98225.88;262322;1093;115072;-70
2021/07/31 01:44:27;;;;;;;15.83;8.77;;;;;;;20.80;61.07;98224.84;262857;1093;115239;-71
2021/07/31 01:49:32;;;;;;;13.07;8.60;;;;;;;20.79;61.35;98215.05;262738;1092;117367;-74
2021/07/31 01:54:44;;;;;;;15.77;9.00;;;;;;;20.72;61.23;98205.95;262374;1092;115160;-69
2021/07/31 01:59:53;;;;;;;14.37;8.73;;;;;;;20.67;61.25;98205.67;262605;1093;115232;-69
2021/07/31 02:04:58;;;;;;;14.17;8.40;;;;;;;20.62;61.52;98211.63;261984;1092;115028;-70
2021/07/31 02:10:11;;;;;;;10.30;8.57;;;;;;;20.61;61.45;98209.08;262803;1093;208482;-69
2021/07/31 02:15:15;;;;;;;12.40;9.13;;;;;;;20.59;61.86;98211.14;260773;1092;115172;-70
2021/07/31 02:20:22;;;;;;;11.13;8.50;;;;;;;20.58;61.33;98193.22;263135;1093;114790;-74
2021/07/31 02:26:02;;;;;;;19.80;8.93;;;;;;;20.52;61.53;98190.23;263292;1092;114967;-70
2021/07/31 02:31:26;;;;;;;13.90;9.03;;;;;;;20.48;61.87;98175.36;263204;1092;114976;-72
2021/07/31 02:36:30;;;;;;;14.55;8.75;;;;;;;20.44;61.95;98165.06;263571;1092;115233;-76
2021/07/31 02:41:39;;;;;;;18.77;8.63;;;;;;;20.41;61.90;98171.66;263352;1092;115178;-68
2021/07/31 02:46:44;;;;;;;13.23;8.85;;;;;;;20.43;62.00;98169.64;261770;1093;114921;-70
2021/07/31 02:51:48;;;;;;;12.50;8.45;;;;;;;20.38;61.85;98176.59;262510;1092;115082;-72
2021/07/31 02:57:13;;;;;;;11.60;8.13;;;;;;;20.33;61.93;98177.97;263373;1092;116163;-72
2021/07/31 03:02:19;;;;;;;13.27;8.57;;;;;;;20.29;62.06;98186.63;262607;1092;115612;-67
2021/07/31 03:07:29;;;;;;;15.03;9.10;;;;;;;20.28;62.19;98176.84;263425;1092;115190;-68
2021/07/31 03:12:34;;;;;;;16.40;8.70;;;;;;;20.26;62.29;98178.87;262242;1092;115103;-69
2021/07/31 03:17:38;;;;;;;16.50;9.23;;;;;;;20.25;62.21;98180.73;263378;1092;115834;-69
2021/07/31 03:22:42;;;;;;;;;;;;;;;20.27;62.38;98185.95;263551;1092;114895;-67
2021/07/31 03:27:46;;;;;;;16.60;9.07;;;;;;;20.28;62.58;98180.38;263480;1093;102913;-68
2021/07/31 03:33:03;;;;;;;13.47;9.47;;;;;;;20.29;62.67;98184.76;263265;1091;115778;-69
2021/07/31 03:38:08;;;;;;;14.75;8.75;;;;;;;20.31;62.91;98182.73;263047;1092;115320;-71
2021/07/31 03:43:13;;;;;;;16.17;9.77;;;;;;;20.33;63.39;98185.23;262975;1093;115130;-72
2021/07/31 03:48:17;;;;;;;17.87;8.87;;;;;;;20.35;63.12;98176.97;263679;1092;118194;-74
2021/07/31 03:53:21;;;;;;;13.55;9.18;;;;;;;20.42;63.07;98186.05;262799;1093;114811;-72
2021/07/31 03:58:26;;;;;;;14.60;9.65;;;;;;;20.51;63.42;98182.28;262734;1091;115243;-71
2021/07/31 04:03:31;;;;;;;18.13;9.77;;;;;;;20.63;63.48;98171.91;262816;1093;115228;-70
2021/07/31 04:08:35;;;;;;;16.55;9.73;;;;;;;20.72;63.62;98173.50;262867;1092;115399;-69
2021/07/31 04:14:05;;;;;;;15.10;9.47;;;;;;;20.81;63.59;98177.00;263020;1093;115440;-69
2021/07/31 04:19:26;;;;;;;16.07;9.17;;;;;;;20.88;63.68;98176.08;262351;1092;115168;-68
2021/07/31 04:24:30;;;;;;;16.15;8.95;;;;;;;20.98;63.86;98179.38;263141;1093;115888;-71
2021/07/31 04:29:36;;;;;;;12.40;8.70;;;;;;;21.09;63.36;98175.38;263455;1092;114992;-71
2021/07/31 04:34:40;;;;;;;16.68;9.35;;;;;;;21.21;63.73;98182.05;263715;1092;115149;-71
2021/07/31 04:39:43;;;;;;;21.43;9.08;;;;;;;21.28;63.52;98179.45;263118;1092;115706;-73
2021/07/31 04:44:47;;;;;;;17.60;9.75;;;;;;;21.33;63.41;98179.75;262959;1092;115154;-70
2021/07/31 04:49:51;;;;;;;15.95;9.03;;;;;;;21.37;63.60;98181.09;263368;1091;115710;-71
2021/07/31 04:54:54;;;;;;;15.70;8.45;;;;;;;21.46;63.62;98187.23;263122;1092;116474;-72
2021/07/31 04:59:58;;;;;;;18.40;9.68;;;;;;;21.58;63.73;98182.22;263427;1092;115532;-72
2021/07/31 05:05:02;;;;;;;19.18;11.10;;;;;;;21.70;63.83;98189.70;261942;1093;115367;-69
2021/07/31 05:10:06;;;;;;;15.83;9.83;;;;;;;21.84;64.06;98193.42;262835;1093;116973;-70
2021/07/31 05:15:10;;;;;;;15.95;9.18;;;;;;;21.97;64.23;98190.03;263531;1091;114977;-70
2021/07/31 05:20:14;;;;;;;12.83;9.35;;;;;;;22.17;64.13;98193.86;263533;1092;115477;-70
2021/07/31 05:25:18;;;;;;;23.05;11.13;;;;;;;22.42;64.06;98193.55;263085;1092;115183;-75
2021/07/31 05:30:22;;;;;;;28.13;11.88;;;;;;;22.63;63.42;98195.44;261239;1092;115458;-73
2021/07/31 05:35:27;;;;;;;22.35;11.30;;;;;;;22.76;62.88;98203.71;263204;1093;116437;-70
2021/07/31 05:40:31;;;;;;;24.40;11.30;;;;;;;22.89;62.35;98209.27;262861;1093;115462;-74
2021/07/31 05:45:35;;;;;;;17.20;9.55;;;;;;;22.98;61.86;98209.16;260895;1093;114982;-70
2021/07/31 05:50:39;;;;;;;15.13;9.48;;;;;;;23.00;61.39;98207.10;263237;1092;115111;-68
2021/07/31 05:55:43;;;;;;;14.83;9.40;;;;;;;23.00;61.13;98201.67;263322;1092;115246;-70
2021/07/31 06:00:46;;;;;;;15.73;7.78;;;;;;;23.00;61.02;98207.94;263187;1093;115379;-71
2021/07/31 06:05:50;;;;;;;15.63;8.65;;;;;;;23.03;61.07;98215.69;262889;1093;114907;-68
2021/07/31 06:11:05;;;;;;;12.88;8.00;;;;;;;23.04;60.79;98217.36;263674;1093;115890;-70
2021/07/31 06:16:09;;;;;;;12.00;7.48;;;;;;;23.03;60.38;98212.98;263721;1093;114938;-72
2021/07/31 06:21:15;;;;;;;12.13;6.73;;;;;;;23.05;60.42;98229.05;263567;1093;115359;-70
2021/07/31 06:26:20;;;;;;;13.93;7.57;;;;;;;23.08;59.89;98237.64;263484;1093;115672;-70
2021/07/31 06:31:35;;;;;;;9.57;7.00;;;;;;;23.14;60.14;98238.75;263472;1092;115232;-70
2021/07/31 06:36:43;;;;;;;12.28;7.53;;;;;;;23.19;60.04;98238.98;263205;1092;114488;-68
2021/07/31 06:41:48;;;;;;;16.67;7.50;;;;;;;23.23;60.11;98253.02;261939;1093;114733;-70
2021/07/31 06:46:54;;;;;;;13.97;7.60;;;;;;;23.26;59.89;98252.63;262467;1093;115025;-69
2021/07/31 06:52:04;;;;;;;11.50;7.63;;;;;;;23.27;59.74;98254.33;262759;1093;114936;-71
2021/07/31 06:57:09;;;;;;;11.20;8.00;;;;;;;23.24;59.93;98258.27;263522;1092;115220;-74
2021/07/31 07:02:13;;;;;;;11.00;7.00;;;;;;;23.21;59.77;98258.66;262127;1092;115489;-70
2021/07/31 07:07:18;;;;;;;;;;;;;;;23.18;59.58;98269.06;263507;1092;115056;-72
2021/07/31 07:12:22;;;;;;;15.43;7.70;;;;;;;23.23;59.91;98280.16;261743;1093;103733;-72
2021/07/31 07:17:25;;;;;;;14.50;7.70;;;;;;;23.29;59.76;98298.39;263037;1092;115689;-70
2021/07/31 07:22:29;;;;;;;14.73;7.18;;;;;;;23.32;59.56;98298.01;263280;1092;114951;-72
2021/07/31 07:27:33;;;;;;;17.23;8.57;;;;;;;23.32;59.43;98317.85;263546;1093;115237;-73
2021/07/31 07:32:38;;;;;;;12.13;7.60;;;;;;;23.31;59.31;98328.92;263671;1092;115257;-71
2021/07/31 07:37:42;;;;;;;13.93;8.17;;;;;;;23.26;59.15;98340.34;263753;1093;115389;-69
2021/07/31 07:42:45;;;;;;;10.85;7.20;;;;;;;23.22;59.43;98347.20;263546;1093;115153;-71
2021/07/31 07:47:49;;;;;;;12.40;8.33;;;;;;;23.19;59.80;98352.17;263585;1092;117756;-69
2021/07/31 07:52:53;;;;;;;13.25;7.68;;;;;;;23.16;60.35;98357.98;263743;1092;115732;-72
2021/07/31 07:57:56;;;;;;;13.33;7.80;;;;;;;23.13;60.83;98364.63;263688;1093;115475;-70
2021/07/31 08:03:00;;;;;;;10.90;7.30;;;;;;;23.12;60.94;98373.81;263676;1092;116961;-70
2021/07/31 08:08:07;;;;;;;11.38;7.35;;;;;;;23.16;61.46;98379.70;262616;1093;115352;-70
2021/07/31 08:13:13;;;;;;;10.70;7.60;;;;;;;23.20;61.59;98381.86;262812;1092;118559;-71
2021/07/31 08:18:17;;;;;;;13.10;8.53;;;;;;;23.23;61.76;98384.17;263124;1092;115379;-70
2021/07/31 08:23:20;;;;;;;38.55;34.65;;;;;;;23.25;62.21;98382.11;263466;1092;114822;-68
2021/07/31 08:28:24;;;;;;;10.48;6.80;;;;;;;23.28;62.00;98384.45;263680;1093;115634;-68
2021/07/31 08:33:28;;;;;;;194.78;124.95;;;;;;;23.32;62.23;98380.30;263560;1092;116274;-68
2021/07/31 08:38:32;;;;;;;14.58;10.40;;;;;;;23.41;62.21;98381.03;263641;1093;116899;-70
2021/07/31 08:43:35;;;;;;;25.35;18.78;;;;;;;23.53;62.26;98378.63;263823;1092;115301;-69
2021/07/31 08:48:42;;;;;;;12.93;8.83;;;;;;;23.58;62.19;98382.45;263883;1091;115251;-69
2021/07/31 08:53:47;;;;;;;9.17;6.23;;;;;;;23.63;62.08;98381.86;263814;1092;115461;-69
2021/07/31 08:58:51;;;;;;;26.03;20.88;;;;;;;23.75;62.29;98377.63;263585;1092;115208;-69
2021/07/31 09:03:56;;;;;;;14.03;11.53;;;;;;;23.89;62.05;98373.14;263899;1092;115692;-69
2021/07/31 09:08:59;;;;;;;17.40;13.75;;;;;;;24.04;62.01;98367.60;263623;1093;118697;-70
2021/07/31 09:14:14;;;;;;;10.83;6.88;;;;;;;24.11;61.66;98365.77;263751;1092;115098;-70
2021/07/31 09:19:19;;;;;;;11.17;6.37;;;;;;;24.10;61.57;98350.50;263838;1091;115339;-69
2021/07/31 09:24:24;;;;;;;10.33;6.90;;;;;;;24.08;61.31;98339.84;262046;1092;116048;-71
2021/07/31 09:29:32;;;;;;;10.87;7.13;;;;;;;24.10;61.52;98339.63;261810;1092;116498;-68
2021/07/31 09:34:49;;;;;;;7.47;5.40;;;;;;;24.07;61.39;98326.42;261835;1092;114700;-70
2021/07/31 09:40:11;;;;;;;8.17;7.10;;;;;;;24.04;61.08;98316.78;261439;1091;114877;-70
2021/07/31 09:45:37;;;;;;;7.00;6.17;;;;;;;24.04;61.51;98316.78;262090;1092;117390;-71
2021/07/31 09:50:51;;;;;;;9.10;6.60;;;;;;;24.03;61.47;98315.11;262251;1092;114701;-70
2021/07/31 09:56:08;;;;;;;15.47;12.67;;;;;;;24.05;61.93;98325.80;261748;1093;114461;-69
2021/07/31 10:01:20;;;;;;;157.87;134.40;;;;;;;24.07;62.04;98326.42;261775;1093;115242;-70
2021/07/31 10:06:31;;;;;;;10.57;8.10;;;;;;;24.07;62.15;98324.55;262492;1092;116855;-71
2021/07/31 10:11:46;;;;;;;10.00;7.37;;;;;;;23.98;62.06;98319.45;262312;1092;115125;-72
2021/07/31 10:17:14;;;;;;;10.40;7.50;;;;;;;23.88;62.21;98332.55;261594;1093;115153;-70
2021/07/31 10:22:43;;;;;;;13.60;8.47;;;;;;;23.81;62.45;98343.38;261459;1093;116217;-70
2021/07/31 10:27:48;;;;;;;10.00;7.37;;;;;;;23.76;62.47;98333.10;262706;1091;114990;-72
2021/07/31 10:32:52;;;;;;;17.87;12.80;;;;;;;23.78;62.62;98339.20;263997;1091;114912;-71
2021/07/31 10:38:01;;;;;;;13.23;10.18;;;;;;;24.01;63.04;98341.64;263641;1092;115578;-71
2021/07/31 10:43:06;;;;;;;9.27;7.30;;;;;;;24.19;62.92;98324.84;263772;1093;115338;-71
2021/07/31 10:48:23;;;;;;;8.40;6.93;;;;;;;24.32;62.67;98329.53;263893;1093;114675;-72
2021/07/31 10:53:50;;;;;;;18.00;12.37;;;;;;;24.39;62.65;98313.22;263878;1092;114986;-71
2021/07/31 10:59:14;;;;;;;11.10;7.60;;;;;;;24.48;62.52;98314.77;263634;1092;115500;-74
2021/07/31 11:04:56;;;;;;;10.13;6.90;;;;;;;24.58;62.57;98309.80;263900;1092;115362;-72
2021/07/31 11:10:43;;;;;;;8.60;6.83;;;;;;;24.66;62.16;98296.03;262958;1092;114728;-72
2021/07/31 11:15:56;;;;;;;8.50;5.87;;;;;;;24.67;62.13;98289.53;262438;1093;114950;-73
2021/07/31 11:21:18;;;;;;;11.77;6.63;;;;;;;24.70;61.98;98280.13;264002;1092;114918;-74
2021/07/31 11:26:49;;;;;;;10.90;8.70;;;;;;;24.70;61.60;98285.58;263453;1093;115076;-72
2021/07/31 11:32:11;;;;;;;10.30;8.60;;;;;;;24.72;61.48;98280.75;262820;1092;116014;-76
2021/07/31 11:37:16;;;;;;;15.50;6.03;;;;;;;24.72;61.07;98289.75;262902;1092;114998;-71
2021/07/31 11:42:25;;;;;;;5.60;4.40;;;;;;;24.75;61.00;98280.34;263638;1093;115393;-67
2021/07/31 11:47:33;;;;;;;6.63;4.83;;;;;;;24.77;61.19;98281.82;261519;1093;114908;-70
2021/07/31 11:52:39;;;;;;;11.27;5.30;;;;;;;24.77;60.68;98268.22;262639;1093;114787;-74
2021/07/31 11:57:49;;;;;;;6.57;4.87;;;;;;;24.76;60.65;98271.13;261658;1092;118329;-71
2021/07/31 12:03:00;;;;;;;5.87;5.20;;;;;;;24.79;60.71;98281.60;261605;1093;114883;-71
2021/07/31 12:08:09;;;;;;;5.30;4.20;;;;;;;24.78;60.29;98278.05;261876;1092;115340;-74
2021/07/31 12:13:31;;;;;;;7.50;4.97;;;;;;;24.76;60.22;98271.13;261830;1093;115602;-73
2021/07/31 12:18:52;;;;;;;6.47;3.83;;;;;;;24.85;60.01;98282.67;261733;1093;114686;-74
2021/07/31 12:24:01;;;;;;;6.77;5.00;;;;;;;25.02;60.00;98281.25;262888;1093;114541;-73
2021/07/31 12:29:05;;;;;;;7.37;5.27;;;;;;;25.21;59.92;98272.31;263213;1092;115108;-73
2021/07/31 12:34:11;;;;;;;6.48;4.28;;;;;;;25.38;59.37;98266.47;262680;1092;114885;-70
2021/07/31 12:39:16;;;;;;;5.47;3.90;;;;;;;25.41;58.97;98277.78;262307;1093;115436;-70
2021/07/31 12:44:31;;;;;;;6.87;4.03;;;;;;;25.46;58.94;98275.25;261528;1092;114613;-73
2021/07/31 12:49:44;;;;;;;4.57;3.63;;;;;;;25.45;58.60;98270.03;261430;1093;115523;-72
2021/07/31 12:55:02;;;;;;;6.13;4.33;;;;;;;25.41;58.59;98257.88;261543;1093;114540;-72
2021/07/31 13:00:12;;;;;;;36.57;30.23;;;;;;;25.48;58.68;98264.16;262150;1093;116725;-72
2021/07/31 13:05:41;;;;;;;8.37;5.77;;;;;;;25.56;59.06;98261.21;261418;1093;115083;-72
2021/07/31 13:10:54;;;;;;;7.27;4.47;;;;;;;25.74;58.81;98263.28;261636;1092;114592;-69
2021/07/31 13:16:12;;;;;;;41.30;31.97;;;;;;;25.98;58.85;98264.53;261813;1091;115213;-69
2021/07/31 13:21:23;;;;;;;8.70;5.73;;;;;;;26.17;58.40;98262.83;261581;1091;115251;-72
2021/07/31 13:26:32;;;;;;;6.60;4.50;;;;;;;26.15;57.70;98254.87;261841;1093;114638;-68
2021/07/31 13:31:46;;;;;;;21.93;15.10;;;;;;;26.18;58.13;98256.31;261989;1091;115251;-73
2021/07/31 13:36:58;;;;;;;6.07;4.70;;;;;;;26.13;57.62;98254.23;261541;1092;116346;-67
2021/07/31 13:42:17;;;;;;;5.10;4.30;;;;;;;26.26;58.20;98256.09;262157;1092;114602;-71
2021/07/31 13:47:32;;;;;;;5.50;4.30;;;;;;;26.50;57.68;98249.09;261789;1092;115915;-73
2021/07/31 13:52:50;;;;;;;6.27;4.20;;;;;;;26.79;57.56;98246.84;261848;1093;116810;-73
2021/07/31 13:58:00;;;;;;;6.17;3.63;;;;;;;27.06;57.35;98251.08;261226;1092;114475;-73
2021/07/31 14:03:14;;;;;;;6.68;3.73;;;;;;;27.38;57.26;98253.84;262230;1093;115029;-71
2021/07/31 14:08:23;;;;;;;4.37;3.53;;;;;;;27.29;56.02;98257.90;261497;1092;114725;-72
2021/07/31 14:13:31;;;;;;;4.60;3.40;;;;;;;27.17;55.39;98259.66;261704;1093;114682;-73
2021/07/31 14:18:43;;;;;;;4.40;3.30;;;;;;;27.13;55.46;98246.44;261247;1092;114557;-73
2021/07/31 14:23:53;;;;;;;4.90;4.07;;;;;;;27.23;55.14;98245.11;261452;1092;114497;-74
2021/07/31 14:29:15;;;;;;;6.93;3.87;;;;;;;27.07;54.14;98249.17;261402;1092;115449;-73
2021/07/31 14:34:46;;;;;;;4.87;3.57;;;;;;;26.89;54.21;98244.47;261141;1093;117155;-72
2021/07/31 14:47:14;;;;;;;3.27;2.90;;;;;;;26.67;54.19;98241.25;261074;1092;115735;-72
2021/07/31 14:52:37;;;;;;;3.97;3.13;;;;;;;26.63;53.68;98232.66;261005;1093;115036;-73
2021/07/31 14:57:46;;;;;;;3.97;3.40;;;;;;;26.52;54.22;98238.78;261143;1093;114795;-72
2021/07/31 15:02:55;;;;;;;4.67;3.00;;;;;;;26.41;54.18;98247.63;260977;1095;117701;-72
2021/07/31 15:08:03;;;;;;;3.93;3.17;;;;;;;26.32;54.15;98241.56;260997;1093;114620;-72
2021/07/31 15:13:08;;;;;;;5.23;3.43;;;;;;;26.24;54.14;98247.27;261153;1093;114903;-72
2021/07/31 15:18:19;;;;;;;3.00;2.70;;;;;;;26.13;54.08;98250.67;260854;1093;115829;-71
2021/07/31 15:23:25;;;;;;;2.93;2.70;;;;;;;26.05;54.24;98251.72;262292;1093;115620;-70
2021/07/31 15:28:30;;;;;;;3.67;2.80;;;;;;;26.01;53.48;98255.09;263536;1093;114866;-71
2021/07/31 15:33:34;;;;;;;;;;;;;;;25.99;53.36;98259.95;263394;1093;114740;-71
2021/07/31 15:38:37;;;;;;;5.03;3.30;;;;;;;25.91;53.77;98248.19;263690;1093;101697;-69
2021/07/31 15:43:41;;;;;;;5.88;3.38;;;;;;;25.89;53.86;98249.47;263461;1093;115617;-70
2021/07/31 15:48:44;;;;;;;8.78;4.20;;;;;;;25.86;54.53;98247.17;263687;1092;116219;-72
2021/07/31 15:53:48;;;;;;;14.95;11.58;;;;;;;25.86;54.69;98238.99;263610;1093;115670;-75
2021/07/31 15:58:56;;;;;;;6.13;4.15;;;;;;;25.85;55.12;98240.02;263609;1093;115403;-75
2021/07/31 16:03:59;;;;;;;5.77;3.93;;;;;;;25.84;55.53;98231.02;263142;1092;115010;-71
2021/07/31 16:09:03;;;;;;;4.55;4.05;;;;;;;25.81;55.28;98244.23;263332;1092;115179;-70
2021/07/31 16:14:07;;;;;;;8.25;4.48;;;;;;;25.81;55.60;98227.88;263488;1093;115180;-72
2021/07/31 16:19:10;;;;;;;4.77;3.80;;;;;;;25.78;55.82;98226.41;263503;1093;116244;-71
2021/07/31 16:24:14;;;;;;;6.95;3.83;;;;;;;25.77;55.74;98229.32;263644;1091;115099;-70
2021/07/31 16:29:17;;;;;;;4.25;3.83;;;;;;;25.75;55.86;98226.83;263800;1092;115017;-77
2021/07/31 16:34:21;;;;;;;6.05;4.20;;;;;;;25.72;56.10;98219.90;263549;1092;115145;-77
2021/07/31 16:39:25;;;;;;;8.18;4.15;;;;;;;25.72;55.97;98221.80;263746;1093;116154;-79
2021/07/31 16:44:28;;;;;;;6.45;3.85;;;;;;;25.69;56.26;98219.48;263504;1092;115053;-70
2021/07/31 16:49:37;;;;;;;6.20;4.40;;;;;;;25.65;56.29;98215.52;263476;1093;115018;-70
2021/07/31 16:54:41;;;;;;;4.65;4.08;;;;;;;25.62;56.26;98214.05;263330;1093;114921;-78
2021/07/31 16:59:45;;;;;;;6.63;4.17;;;;;;;25.59;56.24;98209.02;263144;1092;114742;-75
2021/07/31 17:04:49;;;;;;;5.38;4.25;;;;;;;25.59;56.44;98210.91;263589;1092;114995;-71
2021/07/31 17:09:55;;;;;;;4.63;3.93;;;;;;;25.58;56.75;98220.98;262092;1093;115085;-72
2021/07/31 17:15:11;;;;;;;42.50;29.73;;;;;;;25.57;56.90;98216.55;261624;1092;114773;-72
2021/07/31 17:20:17;;;;;;;5.83;4.50;;;;;;;25.58;56.88;98218.25;261397;1093;114945;-71
2021/07/31 17:25:27;;;;;;;6.57;4.60;;;;;;;25.56;57.06;98220.34;261153;1093;114577;-72
2021/07/31 17:30:40;;;;;;;6.10;4.40;;;;;;;25.54;56.94;98216.14;261758;1092;115581;-71
2021/07/31 17:35:47;;;;;;;7.27;4.40;;;;;;;25.50;56.87;98215.73;261442;1092;115543;-72
2021/07/31 17:40:59;;;;;;;5.40;4.07;;;;;;;25.47;57.01;98210.70;261227;1092;114919;-72
2021/07/31 17:46:06;;;;;;;6.00;4.47;;;;;;;25.46;57.79;98209.03;261209;1092;114761;-72
2021/07/31 17:51:21;;;;;;;6.47;4.67;;;;;;;25.43;57.42;98215.73;261736;1093;115004;-71
2021/07/31 17:56:32;;;;;;;7.77;4.83;;;;;;;25.42;57.52;98218.68;261362;1093;114704;-73
2021/07/31 18:01:39;;;;;;;10.23;5.03;;;;;;;25.38;57.53;98218.27;261347;1093;116491;-69
2021/07/31 18:07:11;;;;;;;9.45;5.05;;;;;;;25.35;57.76;98220.57;261667;1093;114921;-71
2021/07/31 18:12:23;;;;;;;22.97;13.50;;;;;;;25.36;57.49;98219.52;261796;1093;115201;-69
2021/07/31 18:17:34;;;;;;;25.97;18.30;;;;;;;25.39;58.24;98213.65;261526;1093;115663;-70
2021/07/31 18:22:40;;;;;;;10.07;6.37;;;;;;;25.31;57.76;98227.50;261026;1092;115126;-68
2021/07/31 18:27:43;;;;;;;16.37;6.10;;;;;;;25.13;57.86;98225.37;263723;1093;115251;-73
2021/07/31 18:32:47;;;;;;;8.73;5.60;;;;;;;24.95;57.89;98228.67;263671;1093;115565;-73
2021/07/31 18:37:52;;;;;;;9.83;5.40;;;;;;;24.77;58.21;98232.83;263617;1092;115787;-70
2021/07/31 18:42:56;;;;;;;18.95;6.00;;;;;;;24.62;58.76;98242.20;263556;1092;115136;-68
2021/07/31 18:48:04;;;;;;;13.70;6.90;;;;;;;24.68;59.22;98255.83;263512;1093;116568;-70
2021/07/31 18:53:08;;;;;;;10.13;5.80;;;;;;;24.77;59.40;98259.22;263678;1093;115912;-68
2021/07/31 18:58:12;;;;;;;11.93;6.43;;;;;;;24.79;59.44;98271.55;263279;1093;115261;-74
2021/07/31 19:03:16;;;;;;;9.85;6.28;;;;;;;24.78;59.55;98272.61;263513;1093;115236;-72
2021/07/31 19:08:19;;;;;;;11.65;6.48;;;;;;;24.76;59.54;98269.27;263108;1093;117550;-71
2021/07/31 19:13:23;;;;;;;9.60;6.55;;;;;;;24.70;59.16;98289.13;263500;1093;114850;-69
2021/07/31 19:18:28;;;;;;;13.37;7.43;;;;;;;24.61;59.60;98284.90;263428;1093;115293;-72
2021/07/31 19:23:32;;;;;;;9.30;6.95;;;;;;;24.54;59.80;98290.31;263379;1092;115298;-72
2021/07/31 19:28:36;;;;;;;10.37;6.90;;;;;;;24.55;60.06;98299.31;263679;1092;115226;-71
2021/07/31 19:33:39;;;;;;;12.33;7.48;;;;;;;24.54;60.11;98301.20;263860;1092;115314;-71
2021/07/31 19:38:43;;;;;;;11.40;7.15;;;;;;;24.54;60.42;98293.03;263676;1093;115271;-68
2021/07/31 19:43:47;;;;;;;12.45;7.60;;;;;;;24.53;60.57;98299.53;263410;1092;115213;-70
2021/07/31 19:48:51;;;;;;;;;;;;;;;24.49;60.71;98295.54;262662;1092;115224;-70
2021/07/31 19:53:55;;;;;;;14.53;7.17;;;;;;;24.42;60.90;98307.41;263429;1093;101132;-69
2021/07/31 19:58:59;;;;;;;11.38;7.25;;;;;;;24.35;61.31;98315.50;263650;1093;115098;-70
2021/07/31 20:04:04;;;;;;;;;;;;;;;24.37;61.27;98309.88;263504;1092;115148;-70
2021/07/31 20:09:10;;;;;;;11.85;7.70;;;;;;;24.37;61.29;98313.44;263764;1092;101461;-73
2021/07/31 20:14:16;;;;;;;12.13;7.60;;;;;;;24.31;61.18;98314.23;263501;1092;114933;-74
2021/07/31 20:19:21;;;;;;;11.23;6.93;;;;;;;24.26;61.37;98312.13;262770;1093;115455;-70
2021/07/31 20:24:25;;;;;;;12.57;7.50;;;;;;;24.19;61.45;98313.97;262542;1093;116006;-68
2021/07/31 20:29:29;;;;;;;11.88;6.95;;;;;;;24.16;61.66;98311.64;263280;1092;115153;-74
2021/07/31 20:34:33;;;;;;;12.98;6.73;;;;;;;24.17;61.78;98307.05;263438;1092;116269;-72
2021/07/31 20:39:38;;;;;;;11.43;7.28;;;;;;;24.18;61.88;98311.44;263585;1092;114982;-71
2021/07/31 20:44:42;;;;;;;13.10;7.63;;;;;;;24.16;61.75;98321.69;263504;1093;115220;-67
2021/07/31 20:49:46;;;;;;;12.03;7.73;;;;;;;24.13;61.85;98330.23;263519;1092;115294;-67
2021/07/31 20:54:49;;;;;;;18.78;8.03;;;;;;;24.05;61.81;98323.92;263442;1092;115258;-68
2021/07/31 20:59:53;;;;;;;12.58;7.53;;;;;;;24.01;62.00;98332.66;263578;1090;115590;-70
2021/07/31 21:04:57;;;;;;;;;;;;;;;23.94;62.18;98342.64;263705;1092;115149;-69
2021/07/31 21:10:06;;;;;;;11.80;8.00;;;;;;;23.79;61.97;98342.75;263685;1092;101305;-71
2021/07/31 21:15:10;;;;;;;10.67;7.10;;;;;;;23.55;61.92;98339.38;263679;1093;115192;-76
2021/07/31 21:20:14;;;;;;;14.98;8.03;;;;;;;23.34;62.18;98356.53;263416;1093;115060;-75
2021/07/31 21:25:18;;;;;;;10.65;7.65;;;;;;;23.20;62.10;98359.28;263436;1092;115199;-69
2021/07/31 21:30:22;;;;;;;13.85;7.60;;;;;;;23.06;62.36;98361.00;263676;1092;115413;-74
2021/07/31 21:35:25;;;;;;;13.73;8.30;;;;;;;22.94;62.61;98359.84;263758;1092;114847;-72
2021/07/31 21:40:29;;;;;;;13.83;8.70;;;;;;;22.81;63.12;98364.03;263744;1092;115233;-75
2021/07/31 21:45:33;;;;;;;13.83;7.93;;;;;;;22.72;63.24;98358.89;263367;1092;115244;-75
2021/07/31 21:50:37;;;;;;;12.28;8.70;;;;;;;22.65;63.46;98358.81;263468;1092;114758;-70
2021/07/31 21:55:41;;;;;;;12.50;8.50;;;;;;;22.62;63.74;98364.61;263448;1092;115838;-72
2021/07/31 22:00:46;;;;;;;11.98;8.13;;;;;;;22.57;63.93;98359.77;263728;1093;115589;-71
2021/07/31 22:05:49;;;;;;;17.40;10.60;;;;;;;22.51;63.56;98357.80;263508;1092;114684;-68
2021/07/31 22:10:57;;;;;;;13.23;8.67;;;;;;;22.46;64.30;98367.55;262855;1092;114858;-69
2021/07/31 22:16:02;;;;;;;14.27;8.00;;;;;;;22.40;64.40;98366.41;263330;1092;115671;-69
2021/07/31 22:21:06;;;;;;;15.40;7.90;;;;;;;22.33;64.40;98362.77;263561;1093;114746;-71
2021/07/31 22:26:10;;;;;;;15.33;7.75;;;;;;;22.29;64.62;98372.31;263784;1093;115067;-70
2021/07/31 22:31:13;;;;;;;11.40;7.13;;;;;;;22.25;64.58;98354.71;263744;1093;115516;-69
2021/07/31 22:36:17;;;;;;;11.18;7.00;;;;;;;22.18;64.60;98365.45;263506;1092;115402;-73
2021/07/31 22:41:21;;;;;;;12.30;6.80;;;;;;;22.08;64.62;98364.85;263701;1093;115337;-70
2021/07/31 22:46:26;;;;;;;11.18;6.35;;;;;;;21.99;64.43;98357.86;263757;1092;115383;-72
2021/07/31 22:51:30;;;;;;;14.03;7.07;;;;;;;21.93;64.78;98362.13;263606;1092;115617;-72
2021/07/31 22:56:34;;;;;;;10.07;7.10;;;;;;;21.88;64.78;98365.41;263711;1092;115293;-69
2021/07/31 23:01:38;;;;;;;10.15;7.73;;;;;;;21.85;64.96;98376.61;263723;1092;115300;-67
2021/07/31 23:06:42;;;;;;;13.78;8.35;;;;;;;21.83;64.95;98369.67;263760;1092;115234;-70
2021/07/31 23:11:46;;;;;;;12.53;7.80;;;;;;;21.72;65.09;98379.09;263344;1092;115850;-71
2021/07/31 23:16:49;;;;;;;14.88;7.45;;;;;;;21.63;65.10;98393.72;263672;1093;115961;-69
2021/07/31 23:21:54;;;;;;;13.10;8.00;;;;;;;21.65;65.72;98387.10;263660;1092;115066;-70
2021/07/31 23:26:58;;;;;;;11.30;8.50;;;;;;;21.77;65.63;98392.91;263625;1092;116202;-68
2021/07/31 23:32:02;;;;;;;11.70;8.95;;;;;;;21.82;65.80;98398.64;263688;1092;115202;-70